Time;durP1;ratioP1;P1;durP2;ratioP2;P2;SDS_P1;SDS_P2;PMS_P1;PMS_P2;Temp;Humidity;BMP_temperature;BMP_pressure;BME280_temperature;BME280_humidity;BME280_pressure;Samples;Min_cycle;Max_cycle;Signal;HPM_P1;HPM_P2
2023/03/07 00:01:47;;;;;;;12.37;8.60;;;9.40;76.10;;;9.43;51.67;94184.97;5070615;28;20504;-56
2023/03/07 00:04:15;;;;;;;13.20;7.60;;;9.40;76.20;;;9.42;52.05;94190.38;5063854;28;20849;-58
2023/03/07 00:06:42;;;;;;;14.07;7.60;;;9.40;76.50;;;9.39;51.98;94181.00;5071598;28;20570;-58
2023/03/07 00:09:09;;;;;;;10.80;7.17;;;9.40;77.00;;;9.37;52.05;94179.50;5066569;28;20442;-57
2023/03/07 00:11:38;;;;;;;10.73;7.27;;;9.40;77.20;;;9.34;52.16;94175.38;5065517;28;20474;-59
2023/03/07 00:14:07;;;;;;;12.60;7.80;;;9.30;77.70;;;9.33;52.37;94174.56;5072530;28;20446;-59
2023/03/07 00:16:34;;;;;;;12.47;7.27;;;9.30;78.00;;;9.32;52.08;94162.41;5068494;28;20561;-60
2023/03/07 00:19:02;;;;;;;16.87;8.80;;;9.30;78.10;;;9.36;52.79;94172.59;5072282;28;20512;-57
2023/03/07 00:21:31;;;;;;;12.47;7.50;;;9.30;78.60;;;9.37;52.18;94169.00;5068202;28;20501;-59
2023/03/07 00:23:58;;;;;;;15.87;7.50;;;9.30;78.10;;;9.38;52.12;94168.03;5080220;28;20961;-57
2023/03/07 00:26:27;;;;;;;17.77;8.40;;;9.30;78.20;;;9.37;52.17;94163.75;5064473;28;20868;-59
2023/03/07 00:28:56;;;;;;;14.03;8.20;;;9.40;78.90;;;9.38;52.86;94163.59;5053507;28;20462;-60
2023/03/07 00:31:23;;;;;;;12.03;7.70;;;9.40;79.30;;;9.40;52.78;94158.22;5079184;28;20467;-58
2023/03/07 00:33:50;;;;;;;12.03;7.00;;;9.40;79.30;;;9.40;52.73;94156.41;5070232;28;20628;-60
2023/03/07 00:36:19;;;;;;;11.30;6.50;;;9.40;79.70;;;9.40;52.50;94159.03;5067164;28;20477;-56
2023/03/07 00:38:46;;;;;;;12.17;7.17;;;9.40;80.10;;;9.41;52.84;94159.88;5081692;28;20931;-60
2023/03/07 00:41:15;;;;;;;17.03;7.53;;;9.40;79.70;;;9.42;52.68;94156.25;5071718;28;20512;-59
2023/03/07 00:43:42;;;;;;;12.80;7.60;;;9.40;80.30;;;9.41;53.18;94155.44;5070876;28;20459;-56
2023/03/07 00:46:11;;;;;;;12.07;7.90;;;9.40;80.50;;;9.40;53.12;94155.59;5064843;28;20556;-56
2023/03/07 00:48:39;;;;;;;12.70;7.63;;;9.40;80.90;;;9.39;52.89;94148.69;5072626;28;20516;-59
2023/03/07 00:51:08;;;;;;;14.37;7.50;;;9.40;80.90;;;9.38;52.90;94144.44;5070978;28;20492;-59
2023/03/07 00:53:35;;;;;;;13.83;7.93;;;9.40;80.30;;;9.38;52.89;94140.00;5067266;28;20462;-57
2023/03/07 00:56:04;;;;;;;12.37;7.70;;;9.40;80.80;;;9.40;53.15;94138.03;5077704;28;20455;-59
2023/03/07 00:58:32;;;;;;;10.33;6.90;;;9.40;81.80;;;9.40;53.31;94138.03;5063897;28;20459;-56
2023/03/07 01:01:00;;;;;;;13.17;7.30;;;9.40;82.20;;;9.41;52.92;94125.75;5051667;28;20508;-59
2023/03/07 01:03:29;;;;;;;7.60;5.27;;;9.40;81.50;;;9.43;53.08;94123.78;5053093;28;20525;-58
2023/03/07 01:05:57;;;;;;;7.10;5.13;;;9.40;81.50;;;9.50;52.48;94123.03;5072289;28;20494;-57
2023/03/07 01:08:24;;;;;;;7.73;5.47;;;9.50;80.90;;;9.64;52.75;94111.16;5060596;28;20459;-59
2023/03/07 01:10:51;;;;;;;4.63;4.23;;;9.60;80.70;;;9.77;52.49;94102.88;5073538;28;20773;-60
2023/03/07 01:13:19;;;;;;;10.03;5.10;;;9.70;80.60;;;9.90;52.06;94102.47;5074627;28;20501;-56
2023/03/07 01:15:46;;;;;;;7.60;5.03;;;9.80;79.90;;;10.03;51.54;94112.56;5068127;28;20450;-59
2023/03/07 01:18:13;;;;;;;6.33;4.37;;;9.90;79.60;;;10.12;51.56;94089.81;5070771;28;20486;-56
2023/03/07 01:20:42;;;;;;;7.90;4.47;;;10.10;78.00;;;10.19;51.26;94096.06;5076843;28;20827;-56
2023/03/07 01:23:09;;;;;;;7.00;4.57;;;10.20;77.70;;;10.25;51.14;94092.81;5068718;28;20475;-58
2023/03/07 01:25:40;;;;;;;5.13;4.40;;;10.20;77.10;;;10.31;50.83;94096.63;5067963;28;20487;-59
2023/03/07 01:28:07;;;;;;;9.90;4.30;;;10.30;76.60;;;10.37;50.84;94099.47;5074248;28;20490;-55
2023/03/07 01:30:35;;;;;;;7.50;4.97;;;10.30;76.30;;;10.43;50.68;94103.28;5070848;28;21345;-59
2023/03/07 01:33:04;;;;;;;4.67;4.23;;;10.40;76.00;;;10.47;50.49;94103.78;5069293;28;20459;-59
2023/03/07 01:35:36;;;;;;;5.60;4.57;;;10.40;76.00;;;10.48;50.35;94087.03;5072947;28;20450;-59
2023/03/07 01:38:05;;;;;;;4.13;3.80;;;10.40;75.60;;;10.51;50.29;94087.53;5071420;28;20465;-56
2023/03/07 01:40:32;;;;;;;7.30;4.00;;;10.50;75.50;;;10.54;50.23;94102.19;5068323;28;20439;-59
2023/03/07 01:43:22;;;;;;;4.70;4.00;;;10.50;76.20;;;10.56;50.33;94094.94;5071998;28;21077;-59
2023/03/07 01:46:44;;;;;;;4.30;3.80;;;10.50;75.20;;;10.58;50.17;94095.59;5073445;28;20578;-58
2023/03/07 01:49:16;;;;;;;6.53;4.97;;;10.60;75.20;;;10.59;50.10;94097.25;5000839;28;20457;-57
2023/03/07 01:51:46;;;;;;;5.73;4.30;;;10.60;75.20;;;10.62;50.12;94090.88;5076083;28;20995;-56
2023/03/07 01:54:17;;;;;;;9.43;4.57;;;10.60;75.20;;;10.65;50.09;94094.00;5069254;28;20499;-59
2023/03/07 01:56:44;;;;;;;8.83;5.07;;;10.60;75.00;;;10.67;50.04;94088.56;5067456;28;20979;-58
2023/03/07 01:59:11;;;;;;;5.60;4.13;;;10.60;74.80;;;10.67;49.96;94084.13;5078507;28;20547;-59
2023/03/07 02:01:38;;;;;;;5.00;4.37;;;10.60;74.70;;;10.69;50.17;94086.59;5072608;28;20474;-58
2023/03/07 02:04:10;;;;;;;7.80;5.23;;;10.70;74.70;;;10.70;50.03;94072.47;5068037;28;20975;-58
2023/03/07 02:06:38;;;;;;;6.93;5.13;;;10.60;74.60;;;10.69;49.83;94082.19;5065154;28;20506;-56
2023/03/07 02:09:11;;;;;;;13.20;7.73;;;10.70;74.70;;;10.71;50.10;94085.47;5061265;28;20453;-57
2023/03/07 02:11:40;;;;;;;14.60;7.70;;;10.70;74.80;;;10.68;50.02;94092.84;5067613;28;20477;-59
2023/03/07 02:14:08;;;;;;;16.97;7.63;;;10.70;74.70;;;10.61;50.00;94082.13;5072593;28;20989;-56
2023/03/07 02:16:35;;;;;;;13.97;7.40;;;10.60;74.30;;;10.56;50.00;94079.16;5072986;28;20608;-57
2023/03/07 02:19:03;;;;;;;11.33;7.47;;;10.60;74.00;;;10.49;50.04;94088.69;5069242;28;20463;-59
2023/03/07 02:21:34;;;;;;;15.03;7.80;;;10.50;74.00;;;10.39;50.13;94087.00;5068572;28;20470;-56
2023/03/07 02:24:07;;;;;;;18.80;9.13;;;10.40;74.30;;;10.31;50.39;94088.75;5078118;28;20458;-55
2023/03/07 02:26:43;;;;;;;12.57;7.10;;;10.30;74.80;;;10.25;50.34;94092.81;5074626;28;20567;-58
2023/03/07 02:29:11;;;;;;;11.03;7.10;;;10.20;74.70;;;10.22;50.61;94088.72;5065603;28;20577;-57
2023/03/07 02:31:38;;;;;;;16.37;7.90;;;10.20;75.20;;;10.22;50.64;94091.34;5058258;28;20567;-56
2023/03/07 02:34:20;;;;;;;11.80;8.07;;;10.20;75.80;;;10.23;50.85;94090.34;5060587;28;20956;-56
2023/03/07 02:36:48;;;;;;;12.80;6.83;;;10.20;75.80;;;10.25;50.84;94090.19;5057678;28;20478;-55
2023/03/07 02:39:15;;;;;;;11.50;7.30;;;10.20;75.80;;;10.27;50.56;94093.50;5057150;28;20478;-56
2023/03/07 02:41:44;;;;;;;12.60;7.53;;;10.20;75.90;;;10.29;50.59;94093.34;5057578;28;20505;-64
2023/03/07 02:44:11;;;;;;;9.13;6.10;;;10.20;75.80;;;10.30;50.59;94090.56;5056990;28;20463;-59
2023/03/07 02:46:38;;;;;;;6.57;5.30;;;10.20;75.90;;;10.31;50.69;94089.56;5062943;28;20498;-57
2023/03/07 02:49:06;;;;;;;7.47;6.73;;;10.20;75.80;;;10.32;50.62;94093.84;5054254;28;20459;-56
2023/03/07 02:51:33;;;;;;;11.70;6.70;;;10.30;75.90;;;10.35;50.74;94087.47;5057480;28;20806;-56
2023/03/07 02:54:00;;;;;;;8.57;6.37;;;10.30;76.00;;;10.38;50.52;94082.72;5056635;28;20454;-59
2023/03/07 02:56:27;;;;;;;10.00;6.10;;;10.30;75.90;;;10.42;50.45;94092.91;5060670;28;20502;-58
2023/03/07 02:58:56;;;;;;;13.53;7.57;;;10.30;75.90;;;10.39;50.60;94092.28;5062741;28;20461;-55
2023/03/07 03:01:23;;;;;;;10.03;7.30;;;10.40;76.00;;;10.37;50.58;94088.94;5058335;28;20483;-59
2023/03/07 03:03:51;;;;;;;12.80;8.80;;;10.30;75.90;;;10.32;50.48;94095.66;5055853;28;20986;-56
2023/03/07 03:06:18;;;;;;;14.70;8.13;;;10.30;75.80;;;10.28;50.69;94100.38;5054120;28;20483;-59
2023/03/07 03:08:45;;;;;;;15.13;8.60;;;10.20;75.80;;;10.26;50.87;94097.09;5063942;28;20515;-59
2023/03/07 03:11:12;;;;;;;25.13;9.27;;;10.20;76.00;;;10.27;50.85;94098.75;5061876;28;20455;-55
2023/03/07 03:13:40;;;;;;;15.33;8.13;;;10.20;76.10;;;10.27;51.17;94096.13;5060506;28;20481;-58
2023/03/07 03:16:08;;;;;;;15.20;8.40;;;10.20;76.20;;;10.25;51.29;94084.91;5060237;28;20443;-55
2023/03/07 03:18:37;;;;;;;21.13;9.67;;;10.20;76.80;;;10.23;51.15;94092.16;5059450;28;20878;-57
2023/03/07 03:21:08;;;;;;;14.83;8.23;;;10.20;76.60;;;10.17;50.85;94095.41;5059426;28;20451;-58
2023/03/07 03:23:36;;;;;;;11.83;8.00;;;10.10;76.10;;;10.10;51.23;94097.84;5062512;28;20451;-58
2023/03/07 03:26:06;;;;;;;15.20;9.27;;;10.10;76.50;;;10.05;51.15;94097.47;5055821;28;20455;-55
2023/03/07 03:28:34;;;;;;;16.73;8.27;;;10.00;76.60;;;10.02;51.22;94101.25;5062410;28;20459;-58
2023/03/07 03:31:06;;;;;;;16.73;7.93;;;10.00;77.00;;;10.02;51.37;94100.41;5061118;28;20828;-56
2023/03/07 03:33:34;;;;;;;20.93;8.10;;;10.00;77.40;;;10.02;51.54;94096.00;5060132;28;20445;-56
2023/03/07 03:36:06;;;;;;;10.70;7.77;;;10.00;77.80;;;10.05;51.73;94100.09;5058523;28;20451;-56
2023/03/07 03:38:33;;;;;;;10.43;7.17;;;10.00;78.60;;;10.08;52.11;94106.84;5058130;28;20766;-55
2023/03/07 03:41:05;;;;;;;13.00;7.67;;;10.10;78.80;;;10.12;52.29;94105.56;5061187;28;20462;-58
2023/03/07 03:43:32;;;;;;;10.97;6.10;;;10.00;79.60;;;10.15;52.20;94105.25;5057900;28;20942;-55
2023/03/07 03:46:00;;;;;;;7.23;6.00;;;10.10;79.40;;;10.19;52.35;94104.78;5059296;28;20451;-57
2023/03/07 03:48:27;;;;;;;10.17;6.00;;;10.10;79.90;;;10.22;52.32;94107.09;5061306;28;20856;-58
2023/03/07 03:51:03;;;;;;;7.40;5.77;;;10.20;80.00;;;10.25;52.58;94113.84;5062577;28;21155;-55
2023/03/07 03:53:31;;;;;;;7.80;6.13;;;10.20;80.30;;;10.27;52.43;94111.06;5060780;28;20453;-58
2023/03/07 03:56:03;;;;;;;6.43;5.70;;;10.20;80.40;;;10.29;53.03;94111.72;5058795;28;20484;-57
2023/03/07 03:58:30;;;;;;;11.27;6.43;;;10.20;81.40;;;10.29;53.06;94109.09;5063462;28;20489;-55
2023/03/07 04:00:58;;;;;;;16.53;7.00;;;10.20;81.30;;;10.28;52.92;94110.06;5064027;28;20518;-58
2023/03/07 04:03:25;;;;;;;16.53;7.50;;;10.20;81.30;;;10.25;52.68;94108.56;5057689;28;20527;-56
2023/03/07 04:05:52;;;;;;;10.27;6.90;;;10.20;81.10;;;10.22;53.19;94108.88;5071165;28;20458;-56
2023/03/07 04:08:22;;;;;;;6.90;6.17;;;10.20;81.60;;;10.22;53.30;94111.50;5063569;28;20517;-57
2023/03/07 04:10:49;;;;;;;8.40;5.53;;;10.20;82.10;;;10.22;53.35;94106.25;5073658;28;20438;-58
2023/03/07 04:13:16;;;;;;;7.87;6.03;;;10.20;82.10;;;10.21;53.11;94115.16;5067390;28;20466;-55
2023/03/07 04:15:43;;;;;;;6.93;6.00;;;10.20;82.10;;;10.21;53.20;94112.50;5079180;28;20449;-55
2023/03/07 04:18:11;;;;;;;9.03;6.30;;;10.20;82.00;;;10.21;53.14;94115.97;5073734;28;21001;-56
2023/03/07 04:20:38;;;;;;;12.77;6.77;;;10.20;82.10;;;10.21;53.22;94115.16;5064753;28;20837;-58
2023/03/07 04:23:05;;;;;;;19.73;7.00;;;10.20;82.10;;;10.22;53.36;94108.88;5073944;28;21016;-56
2023/03/07 04:25:34;;;;;;;8.93;6.93;;;10.20;82.10;;;10.21;53.07;94109.88;5076502;28;20943;-56
2023/03/07 04:28:01;;;;;;;13.13;6.60;;;10.20;82.10;;;10.22;53.15;94116.78;5068333;28;20497;-56
2023/03/07 04:30:29;;;;;;;11.40;8.77;;;10.20;82.30;;;10.22;53.43;94111.50;5062466;28;20550;-60
2023/03/07 04:32:56;;;;;;;18.10;12.30;;;10.20;82.90;;;10.22;53.39;94114.16;5059495;28;20557;-58
2023/03/07 04:35:23;;;;;;;13.17;6.20;;;10.20;82.70;;;10.22;53.26;94116.78;5059609;28;20458;-59
2023/03/07 04:37:51;;;;;;;9.00;5.60;;;10.20;82.50;;;10.22;53.31;94115.00;5068704;28;20470;-55
2023/03/07 04:40:18;;;;;;;14.93;8.93;;;10.20;82.20;;;10.23;53.32;94123.69;5073269;28;20528;-57
2023/03/07 04:42:47;;;;;;;7.77;5.90;;;10.20;82.60;;;10.22;53.14;94128.13;5068597;28;20478;-60
2023/03/07 04:45:14;;;;;;;7.77;5.57;;;10.20;82.10;;;10.22;52.89;94127.28;5061214;28;21038;-57
2023/03/07 04:47:42;;;;;;;8.10;6.83;;;10.20;82.10;;;10.23;52.84;94126.31;5080992;28;20547;-56
2023/03/07 04:50:10;;;;;;;8.17;5.47;;;10.20;81.80;;;10.26;52.64;94128.63;5071593;28;20543;-61
2023/03/07 04:52:37;;;;;;;11.00;6.50;;;10.20;81.60;;;10.31;52.57;94134.22;5066040;28;20838;-59
2023/03/07 04:55:06;;;;;;;46.53;26.90;;;10.20;81.20;;;10.31;52.59;94126.34;5071635;28;20458;-56
2023/03/07 04:57:33;;;;;;;12.00;8.20;;;10.20;81.10;;;10.28;52.32;94128.47;5067345;28;21026;-58
2023/03/07 05:00:02;;;;;;;13.17;8.33;;;10.20;80.50;;;10.23;52.30;94128.94;5068061;28;20814;-55
2023/03/07 05:02:29;;;;;;;12.57;7.40;;;10.20;80.50;;;10.19;52.17;94122.34;5069932;28;20477;-55
2023/03/07 05:04:56;;;;;;;16.43;9.13;;;10.20;80.30;;;10.17;52.50;94125.13;5072734;28;20462;-59
2023/03/07 05:07:24;;;;;;;15.87;8.33;;;10.20;80.80;;;10.18;52.36;94131.22;5062220;28;20498;-58
2023/03/07 05:09:51;;;;;;;17.63;8.63;;;10.10;80.60;;;10.17;52.20;94126.94;5069343;28;20462;-60
2023/03/07 05:12:18;;;;;;;13.63;8.30;;;10.10;80.50;;;10.19;52.37;94130.22;5066299;28;20853;-61
2023/03/07 05:14:46;;;;;;;15.40;9.33;;;10.10;80.60;;;10.21;52.42;94128.28;5068787;28;20447;-57
2023/03/07 05:17:15;;;;;;;10.90;7.63;;;10.20;80.80;;;10.22;52.37;94125.50;5059073;28;20513;-60
2023/03/07 05:19:42;;;;;;;13.13;8.20;;;10.20;80.90;;;10.26;52.25;94128.63;5075431;28;20537;-56
2023/03/07 05:22:10;;;;;;;13.60;7.90;;;10.20;80.70;;;10.31;52.38;94122.91;5057518;28;20482;-60
2023/03/07 05:24:37;;;;;;;13.13;8.27;;;10.20;80.70;;;10.34;52.11;94127.88;5060233;28;20458;-59
2023/03/07 05:27:05;;;;;;;11.67;7.83;;;10.30;80.60;;;10.38;52.39;94126.59;5069364;28;21024;-59
2023/03/07 05:29:33;;;;;;;17.47;6.80;;;10.30;80.80;;;10.43;52.12;94123.50;5069463;28;20839;-60
2023/03/07 05:32:01;;;;;;;11.37;5.63;;;10.30;80.70;;;10.48;52.62;94129.09;5066321;28;20474;-57
2023/03/07 05:34:30;;;;;;;21.87;6.87;;;10.40;81.90;;;10.54;51.87;94136.34;5063492;28;20534;-56
2023/03/07 05:36:57;;;;;;;17.93;8.30;;;10.50;80.30;;;10.56;51.41;94135.19;5069368;28;20465;-59
2023/03/07 05:39:27;;;;;;;24.83;7.90;;;10.50;79.90;;;10.58;51.85;94137.66;5065680;28;21024;-56
2023/03/07 05:41:55;;;;;;;18.53;7.83;;;10.50;80.00;;;10.61;51.95;94131.28;5059104;28;20478;-58
2023/03/07 05:44:22;;;;;;;9.50;6.10;;;10.60;79.90;;;10.66;51.58;94139.50;5064692;28;20664;-58
2023/03/07 05:46:49;;;;;;;16.27;9.13;;;10.60;79.40;;;10.68;51.13;94143.63;5066941;28;21014;-59
2023/03/07 05:49:16;;;;;;;21.37;9.30;;;10.60;78.40;;;10.71;50.88;94148.59;5061920;28;20535;-59
2023/03/07 05:51:45;;;;;;;17.27;7.70;;;10.60;77.80;;;10.76;50.74;94146.28;5071150;28;20462;-58
2023/03/07 05:54:12;;;;;;;50.23;21.37;;;10.70;77.50;;;10.79;50.54;94146.97;5066982;28;20527;-58
2023/03/07 05:56:39;;;;;;;39.33;19.50;;;10.70;78.10;;;10.79;51.01;94160.13;5069290;28;20527;-58
2023/03/07 05:59:10;;;;;;;38.00;19.70;;;10.70;78.00;;;10.74;51.04;94157.97;5074270;28;20454;-56
2023/03/07 06:01:37;;;;;;;36.00;18.50;;;10.60;77.90;;;10.74;51.04;94158.78;5075711;28;20971;-56
2023/03/07 06:04:04;;;;;;;22.40;13.90;;;10.70;78.40;;;10.70;51.16;94157.44;5072077;28;20527;-58
2023/03/07 06:06:31;;;;;;;23.43;13.30;;;10.70;78.50;;;10.66;51.24;94160.53;5059905;28;20470;-56
2023/03/07 06:09:00;;;;;;;18.43;12.70;;;10.60;78.40;;;10.61;51.28;94154.94;5076321;28;20496;-59
2023/03/07 06:11:27;;;;;;;21.23;12.53;;;10.60;78.70;;;10.62;51.55;94159.25;5074060;28;20475;-57
2023/03/07 06:13:55;;;;;;;23.77;13.20;;;10.60;79.30;;;10.61;51.40;94153.13;5073255;28;20464;-57
2023/03/07 06:16:22;;;;;;;29.20;14.57;;;10.60;79.00;;;10.60;51.49;94148.88;5077601;28;20491;-59
2023/03/07 06:18:49;;;;;;;29.13;13.47;;;10.60;79.40;;;10.58;51.63;94149.03;5075136;28;20447;-59
2023/03/07 06:21:17;;;;;;;20.93;12.27;;;10.60;79.30;;;10.57;51.71;94146.56;5068222;28;20557;-56
2023/03/07 06:23:45;;;;;;;24.93;12.40;;;10.50;79.30;;;10.59;51.57;94163.00;5076845;28;20486;-57
2023/03/07 06:26:13;;;;;;;20.47;13.17;;;10.60;79.40;;;10.72;51.66;94155.50;5077519;28;20459;-58
2023/03/07 06:28:41;;;;;;;26.20;15.23;;;10.60;79.80;;;10.86;51.75;94166.38;5065065;28;21122;-58
2023/03/07 06:31:09;;;;;;;27.80;15.40;;;10.70;80.20;;;10.97;51.51;94163.47;5077687;28;20477;-56
2023/03/07 06:33:36;;;;;;;31.90;14.83;;;10.80;80.00;;;11.02;51.49;94157.75;5074802;28;20455;-59
2023/03/07 06:36:06;;;;;;;32.60;14.90;;;10.90;79.70;;;11.02;51.21;94170.91;5070443;28;20455;-57
2023/03/07 06:38:34;;;;;;;31.47;13.43;;;10.90;79.50;;;11.01;51.60;94169.25;5073968;28;20461;-58
2023/03/07 06:41:01;;;;;;;31.13;14.30;;;10.90;79.70;;;10.98;51.49;94183.53;5078418;28;20451;-57
2023/03/07 06:43:30;;;;;;;27.13;13.40;;;10.90;79.60;;;10.99;51.57;94181.75;5071155;28;20845;-57
2023/03/07 06:45:57;;;;;;;29.87;13.50;;;10.90;79.50;;;10.93;51.37;94188.44;5071392;28;20454;-57
2023/03/07 06:48:25;;;;;;;36.83;16.00;;;10.90;79.10;;;10.90;51.37;94186.94;5078192;28;20521;-58
2023/03/07 06:50:52;;;;;;;35.80;14.97;;;10.90;79.80;;;10.84;51.75;94178.88;5074060;28;20536;-57
2023/03/07 06:53:19;;;;;;;29.50;14.83;;;10.80;79.30;;;10.81;51.27;94185.28;5069218;28;20995;-55
2023/03/07 06:55:49;;;;;;;37.37;14.63;;;10.80;79.20;;;10.80;51.71;94182.78;5075819;28;20463;-58
2023/03/07 06:58:17;;;;;;;26.77;15.27;;;10.80;79.60;;;10.84;51.88;94189.41;5076156;28;20481;-59
2023/03/07 07:00:45;;;;;;;24.27;11.67;;;10.80;79.70;;;10.86;51.63;94183.00;5070998;28;20451;-56
2023/03/07 07:03:13;;;;;;;31.13;11.60;;;10.80;79.90;;;10.88;51.66;94181.03;5076658;28;20470;-58
2023/03/07 07:05:40;;;;;;;35.17;12.80;;;10.80;79.90;;;10.98;51.74;94191.41;5078060;28;20512;-56
2023/03/07 07:08:08;;;;;;;26.33;11.43;;;10.90;80.30;;;11.11;51.50;94177.84;5068572;28;20499;-56
2023/03/07 07:10:35;;;;;;;28.13;12.97;;;11.00;79.80;;;11.21;51.39;94169.78;5074760;28;20880;-59
2023/03/07 07:13:03;;;;;;;17.60;8.73;;;11.10;80.00;;;11.48;50.89;94168.69;5079545;28;20478;-57
2023/03/07 07:15:31;;;;;;;24.03;11.90;;;11.30;79.00;;;11.77;50.59;94176.13;5065787;28;20460;-56
2023/03/07 07:18:00;;;;;;;21.50;11.80;;;11.60;78.60;;;12.01;50.09;94177.13;5071249;28;20824;-56
2023/03/07 07:20:27;;;;;;;14.37;9.40;;;11.80;77.70;;;12.18;49.70;94181.41;5078789;28;20897;-58
2023/03/07 07:22:54;;;;;;;20.73;6.67;;;12.00;76.50;;;12.36;48.74;94175.94;5060266;28;20853;-56
2023/03/07 07:25:22;;;;;;;9.53;6.40;;;12.20;75.40;;;12.62;48.75;94174.06;5061432;28;20459;-58
2023/03/07 07:27:49;;;;;;;12.93;6.23;;;12.50;74.70;;;12.98;48.11;94176.22;5075938;28;20575;-57
2023/03/07 07:30:16;;;;;;;14.60;6.00;;;12.70;74.20;;;13.24;47.50;94179.41;5074650;28;20516;-57
2023/03/07 07:32:44;;;;;;;6.97;5.00;;;13.00;73.20;;;13.42;46.67;94175.72;5056215;28;20854;-57
2023/03/07 07:35:13;;;;;;;9.90;6.27;;;13.20;71.60;;;13.48;46.05;94179.47;5066378;28;20494;-59
2023/03/07 07:37:40;;;;;;;10.30;5.10;;;13.30;69.50;;;13.51;46.29;94182.59;5071015;28;20486;-60
2023/03/07 07:40:10;;;;;;;12.67;4.97;;;13.30;70.00;;;13.52;46.00;94178.94;5066648;28;20515;-56
2023/03/07 07:42:37;;;;;;;6.43;4.83;;;13.30;69.50;;;13.52;46.19;94189.50;5070858;28;20994;-58
2023/03/07 07:45:05;;;;;;;14.07;5.03;;;13.40;69.60;;;13.57;46.46;94189.81;5072937;28;20454;-59
2023/03/07 07:47:33;;;;;;;9.10;5.87;;;13.40;70.70;;;13.66;46.21;94185.28;5068275;28;20579;-58
2023/03/07 07:50:00;;;;;;;14.90;5.80;;;13.50;70.10;;;13.71;46.58;94182.13;5068702;28;20926;-59
2023/03/07 07:52:28;;;;;;;6.40;4.77;;;13.50;70.20;;;13.79;46.11;94180.25;5077343;28;20478;-59
2023/03/07 07:54:56;;;;;;;7.20;5.00;;;13.60;69.80;;;13.88;45.85;94182.81;5074503;28;20446;-58
2023/03/07 07:57:23;;;;;;;19.00;6.13;;;13.70;68.20;;;13.90;45.48;94188.78;5068877;28;20479;-56
2023/03/07 07:59:50;;;;;;;14.50;5.20;;;13.70;68.10;;;13.92;44.76;94184.13;5080356;28;20970;-57
2023/03/07 08:02:17;;;;;;;5.30;4.23;;;13.70;65.90;;;13.94;44.86;94190.91;5074256;28;20501;-56
2023/03/07 08:04:46;;;;;;;5.30;4.50;;;13.80;66.80;;;13.97;45.18;94192.34;5068643;28;20462;-60
2023/03/07 08:07:14;;;;;;;12.67;5.60;;;13.80;66.70;;;14.02;43.51;94197.09;5073522;28;20545;-58
2023/03/07 08:09:42;;;;;;;10.23;7.30;;;13.80;64.40;;;14.07;44.27;94200.06;5076130;28;20533;-58
2023/03/07 08:12:11;;;;;;;8.43;4.90;;;13.90;65.40;;;14.11;43.81;94191.59;5068337;28;20526;-59
2023/03/07 08:14:38;;;;;;;10.17;4.47;;;14.00;64.50;;;14.19;44.39;94193.34;5067226;28;20462;-57
2023/03/07 08:17:05;;;;;;;4.67;4.20;;;14.00;65.00;;;14.29;43.83;94193.88;5072706;28;20467;-57
2023/03/07 08:19:33;;;;;;;16.03;6.57;;;14.10;64.50;;;14.41;44.28;94190.81;5066249;28;20463;-58
2023/03/07 08:22:00;;;;;;;17.90;10.80;;;14.20;65.20;;;14.50;44.33;94187.91;5067749;28;20998;-58
2023/03/07 08:24:28;;;;;;;25.07;13.27;;;14.30;65.10;;;14.62;44.48;94190.13;5068785;28;20457;-59
2023/03/07 08:26:57;;;;;;;30.07;12.83;;;14.40;65.80;;;14.69;44.46;94193.72;5068805;28;20478;-57
2023/03/07 08:29:24;;;;;;;28.70;12.67;;;14.50;65.90;;;14.75;44.41;94202.72;5064927;28;20494;-59
2023/03/07 08:31:53;;;;;;;21.70;13.57;;;14.60;65.70;;;14.84;44.19;94204.28;5069315;28;20471;-59
2023/03/07 08:34:20;;;;;;;27.50;11.27;;;14.70;65.50;;;14.92;43.82;94198.91;5069498;28;20556;-58
2023/03/07 08:36:47;;;;;;;22.90;12.53;;;14.70;65.30;;;14.99;43.75;94189.22;5069426;28;20978;-59
2023/03/07 08:39:14;;;;;;;14.63;7.27;;;14.80;64.40;;;15.03;43.05;94193.16;5066998;28;20486;-58
2023/03/07 08:41:42;;;;;;;15.70;5.43;;;14.90;63.20;;;15.11;42.57;94181.63;5074695;28;20469;-57
2023/03/07 08:44:10;;;;;;;8.00;5.60;;;14.90;61.30;;;15.21;42.83;94181.34;5070527;28;20485;-56
2023/03/07 08:46:38;;;;;;;12.17;7.33;;;15.00;61.70;;;15.36;42.15;94190.09;5071418;28;20470;-59
2023/03/07 08:49:05;;;;;;;17.00;9.10;;;15.10;60.90;;;15.48;42.15;94192.28;5076507;28;20998;-55
2023/03/07 08:51:33;;;;;;;15.27;9.97;;;15.20;61.50;;;15.55;42.55;94179.91;5072605;28;20471;-59
2023/03/07 08:54:01;;;;;;;16.43;9.60;;;15.40;61.80;;;15.66;42.50;94190.03;5066456;28;20523;-59
2023/03/07 08:56:28;;;;;;;13.47;8.10;;;15.40;61.80;;;15.75;42.32;94188.91;5079782;28;20485;-58
2023/03/07 08:58:55;;;;;;;15.70;9.20;;;15.50;61.40;;;15.89;42.01;94183.75;5072427;28;20810;-56
2023/03/07 09:01:24;;;;;;;18.87;7.40;;;15.60;61.10;;;16.10;41.53;94183.72;5067685;28;20994;-56
2023/03/07 09:03:51;;;;;;;12.90;7.07;;;15.80;60.60;;;16.38;41.08;94188.25;5075278;28;20457;-56
2023/03/07 09:06:20;;;;;;;7.50;5.53;;;16.00;59.80;;;16.62;38.98;94175.53;5059929;28;21096;-57
2023/03/07 09:08:48;;;;;;;6.90;4.93;;;16.30;57.50;;;16.86;39.02;94174.31;5062920;28;20487;-59
2023/03/07 09:11:15;;;;;;;9.73;5.33;;;16.50;57.00;;;17.35;39.56;94172.47;5069527;28;20437;-56
2023/03/07 09:13:42;;;;;;;8.83;4.33;;;16.90;57.90;;;17.78;38.95;94171.38;5074569;28;20538;-60
2023/03/07 09:16:10;;;;;;;9.27;4.83;;;17.40;57.80;;;18.08;38.22;94172.69;5068401;28;20977;-56
2023/03/07 09:18:38;;;;;;;8.57;3.93;;;17.70;56.20;;;18.56;37.74;94169.00;5069671;28;20468;-57
2023/03/07 09:21:06;;;;;;;5.70;3.90;;;18.10;56.20;;;19.20;37.31;94165.84;5069625;28;20460;-56
2023/03/07 09:23:33;;;;;;;11.03;5.17;;;18.70;55.10;;;19.83;36.44;94170.47;5062461;28;20531;-58
2023/03/07 09:26:01;;;;;;;8.73;4.20;;;19.20;53.90;;;20.20;35.53;94171.47;5062777;28;20465;-58
2023/03/07 09:28:28;;;;;;;5.53;3.97;;;19.60;53.10;;;20.14;35.30;94168.84;5074821;28;20485;-59
2023/03/07 09:30:55;;;;;;;6.87;3.73;;;19.70;51.90;;;20.04;35.19;94167.47;5064237;28;20460;-59
2023/03/07 09:33:22;;;;;;;9.77;4.40;;;19.70;51.40;;;19.76;34.86;94161.66;5058643;28;20512;-56
2023/03/07 09:35:51;;;;;;;11.73;4.63;;;19.50;50.80;;;19.55;35.24;94155.63;5077265;28;20466;-57
2023/03/07 09:38:18;;;;;;;11.77;5.30;;;19.30;50.50;;;19.37;34.80;94148.31;5067512;28;20475;-59
2023/03/07 09:40:46;;;;;;;12.23;6.10;;;19.10;50.60;;;19.24;34.93;94143.88;5069049;28;20447;-59
2023/03/07 09:43:18;;;;;;;5.13;3.80;;;19.00;50.70;;;19.11;34.96;94144.72;5072415;28;20470;-55
2023/03/07 09:45:53;;;;;;;10.70;5.63;;;18.80;49.80;;;18.97;35.79;94138.59;5072753;28;20450;-59
2023/03/07 09:48:52;;;;;;;5.63;3.63;;;18.70;50.80;;;18.85;35.34;94140.28;5063063;28;20553;-57
2023/03/07 09:51:24;;;;;;;8.30;4.27;;;18.70;49.90;;;18.85;36.26;94142.94;5078264;28;20515;-56
2023/03/07 09:53:53;;;;;;;11.67;3.37;;;18.60;51.30;;;19.05;35.08;94128.75;5077822;28;20476;-58
2023/03/07 09:56:27;;;;;;;4.47;3.20;;;18.70;50.40;;;19.17;35.34;94127.88;5067621;28;21182;-55
2023/03/07 09:59:00;;;;;;;9.37;4.13;;;18.80;50.80;;;19.29;34.58;94120.03;5078491;28;20446;-58
2023/03/07 10:01:29;;;;;;;3.40;2.30;;;19.00;50.10;;;19.59;35.45;94119.47;5080255;28;21023;-57
2023/03/07 10:04:00;;;;;;;4.83;3.13;;;19.20;51.20;;;20.03;34.53;94123.13;5069027;28;20455;-57
2023/03/07 10:06:30;;;;;;;10.57;2.57;;;19.60;50.80;;;20.35;33.61;94112.38;5068641;28;20904;-56
2023/03/07 10:08:58;;;;;;;2.80;2.00;;;19.90;49.00;;;20.55;33.32;94108.72;5079711;28;20478;-56
2023/03/07 10:12:06;;;;;;;4.17;3.20;;;20.10;48.10;;;20.89;33.07;94103.88;5075447;28;20471;-59
2023/03/07 10:14:47;;;;;;;3.20;1.80;;;20.40;48.60;;;21.32;31.94;94105.63;5016308;28;20487;-56
2023/03/07 10:17:20;;;;;;;1.90;1.80;;;20.90;46.90;;;21.75;31.32;94099.31;5069323;28;20486;-58
2023/03/07 10:19:48;;;;;;;2.17;2.00;;;21.20;45.80;;;21.83;29.41;94104.34;5072497;28;20530;-59
2023/03/07 10:22:20;;;;;;;2.63;1.63;;;21.40;43.90;;;21.61;28.82;94097.88;5075041;28;20469;-59